San Carlos, CA

11:18 AM PDT on September 19, 2014 (GMT -0700)
San Francisco International | Change Station
CLOSE
Current Station
Airport
Location: San Francisco,
Elevation: 16 ft
Nearby Weather Stations

Elev 16 ft 37.62 °N, 122.37 °W | Updated 22 minutes ago

Partly Cloudy
Partly Cloudy
70 °F
Feels Like 70 °F
N
12
Wind Variable Wind from NW

Today
High -- | Low -- °F
--% Chance of Precip.
Yesterday
High -- | Low -- °F
Precip. -- in
6:54 AM 7:10 PM
Waning Crescent, 17% visible
Pressure 29.92 in
Visibility 10.0 miles
Clouds Few 700 ft
Scattered Clouds 1300 ft
Dew Point 62 °F
Humidity 76%
Rainfall 0.00 in
Snow Depth 0 in , 0 in , 0 in
UV 5 out of 12
Pollen 4.70 out of 12
Ozone Good
PM2.5 Moderate
Flu Activity Not available.
METAR KSFO 191756Z 32010KT 10SM FEW007 SCT013 21/17 A2992 RMK AO2 SLP132 T02110167 10217 20172 50002

More Conditions Fewer Conditions

Pressure 29.92 in
Visibility 10.0 miles
Clouds Few 700 ft
Scattered Clouds 1300 ft
Dew Point 62 °F
Humidity 76%
Rainfall 0.00 in
Snow Depth 0 in , 0 in , 0 in
UV 5 out of 12
Pollen 4.70 out of 12
Ozone Good
PM2.5 Moderate
Flu Activity Not available.
METAR KSFO 191756Z 32010KT 10SM FEW007 SCT013 21/17 A2992 RMK AO2 SLP132 T02110167 10217 20172 50002

More Conditions Fewer Conditions

10-Day Weather Forecast

Almanac

Astronomy

Sep. 19, 2014 Rise Set
Actual Time 6:54 AM PDT 7:10 PM PDT
Civil Twilight 6:28 AM PDT 7:36 PM PDT
Nautical Twilight 5:57 AM PDT 8:07 PM PDT
Astronomical Twilight 5:26 AM PDT 8:38 PM PDT
Moon 2:48 AM PDT 4:39 PM PDT
Length of Visible Light 13h 08m
Length of Day
12h 16m
Tomorrow will be 2m 24s shorter.
Waning Crescent, 17% of the Moon is Illuminated
Today
Waning Crescent
Sep 24
New
Oct 1
First Quarter
Oct 8
Full
Oct 15
Last Quarter

Today's Extremes

State Highs State Lows

Community

WunderPhotos

Upload Photos

1,754,678 photos uploaded!

WunderBlogs® & News

Nearby

Air Quality

  Air Quality AQ Index Pollutant
Yesterday Good
OZONE
Yesterday Good
PM2.5
Current Moderate
PM2.5
Current Good
OZONE
Friday Good
OZONE
Saturday Moderate
PM2.5
Sunday Moderate
PM2.5
Monday Good
PM2.5
Tuesday Good
PM2.5

Snow Depth

Station Depth Elevation
Monitor Pass 0 in 8350 ft
Dismal Swamp 0 in 7000 ft
Tahoe City Cross 0 in 6750 ft
Rubicon #2 0 in 7500 ft
Leavitt Meadows 0 in 7200 ft

Earthquake Activity

City Distance Mag. Time & Date
Livermore, California 32 miles 2.6 3:37 AM PDT
2014-09-19
The Geysers, California 90 miles 2.5 11:29 PM PDT
2014-09-17
Cobb, California 92 miles 2.7 1:23 PM PDT
2014-09-16
Minimum magnitude displayed is 2.5.

Coastal Water Temperatures

Place Temperature
No Stations Reporting

Nearby Weather Stations